createdAt,value
2019-02-12T00:00:05.768Z,0
2019-02-12T00:12:14.862Z,0
2019-02-12T00:15:58.769Z,0
2019-02-12T00:16:53.110Z,0
2019-02-12T00:17:51.427Z,0
2019-02-12T00:18:48.145Z,0
2019-02-12T00:19:46.281Z,0
2019-02-12T00:28:47.729Z,0
2019-02-12T00:29:39.748Z,0
2019-02-12T00:35:37.017Z,0
2019-02-12T00:36:28.782Z,0
2019-02-12T00:43:27.528Z,0
2019-02-12T01:06:34.252Z,0
2019-02-12T01:07:30.776Z,0
2019-02-12T01:08:36.523Z,0
2019-02-12T01:09:31.738Z,0
2019-02-12T01:10:42.805Z,0
2019-02-12T01:11:43.284Z,0
2019-02-12T01:12:41.695Z,0
2019-02-12T01:13:41.130Z,0
2019-02-12T01:19:01.360Z,0
2019-02-12T01:23:28.948Z,0
2019-02-12T01:27:12.466Z,0
2019-02-12T01:28:05.065Z,0
2019-02-12T01:28:54.734Z,0
2019-02-12T01:31:53.987Z,0
2019-02-12T01:32:45.593Z,0
2019-02-12T01:41:16.083Z,0
2019-02-12T01:44:28.551Z,0
2019-02-12T01:46:11.373Z,0
2019-02-12T01:47:04.773Z,0
2019-02-12T01:47:56.181Z,0
2019-02-12T01:48:48.399Z,0
2019-02-12T01:49:39.249Z,0
2019-02-12T01:50:29.602Z,0
2019-02-12T01:51:21.045Z,0
2019-02-12T01:52:21.210Z,0
2019-02-12T01:53:11.792Z,0
2019-02-12T01:54:04.867Z,0
2019-02-12T01:54:54.273Z,0
2019-02-12T01:55:51.883Z,0
2019-02-12T02:07:46.662Z,0
2019-02-12T02:08:40.790Z,0
2019-02-12T02:12:46.987Z,0
2019-02-12T02:13:39.980Z,0
2019-02-12T02:14:31.298Z,0
2019-02-12T02:16:56.816Z,0
2019-02-12T02:17:49.758Z,0
2019-02-12T02:18:45.557Z,0
2019-02-12T02:23:13.213Z,0
2019-02-12T02:23:55.349Z,0
2019-02-12T02:26:06.730Z,0
2019-02-12T02:26:53.574Z,0
2019-02-12T02:27:42.408Z,0
2019-02-12T02:28:32.448Z,0
2019-02-12T02:29:22.794Z,0
2019-02-12T02:30:18.649Z,0
2019-02-12T02:33:52.958Z,0
2019-02-12T02:34:48.927Z,0
2019-02-12T02:35:38.004Z,0
2019-02-12T02:36:30.319Z,0
2019-02-12T02:37:21.588Z,0
2019-02-12T02:38:12.297Z,0
2019-02-12T02:39:04.627Z,0
2019-02-12T02:40:01.482Z,0
2019-02-12T02:40:56.979Z,0
2019-02-12T02:51:18.324Z,0
2019-02-12T03:03:34.635Z,0
2019-02-12T03:04:45.458Z,0
2019-02-12T03:17:34.784Z,0
2019-02-12T03:31:31.919Z,0
2019-02-12T03:32:25.718Z,0
2019-02-12T03:33:16.858Z,0
2019-02-12T03:34:07.226Z,0
2019-02-12T03:34:58.207Z,0
2019-02-12T03:35:52.724Z,0
2019-02-12T03:38:35.826Z,0
2019-02-12T03:39:32.565Z,0
2019-02-12T03:40:28.836Z,0
2019-02-12T03:41:26.960Z,0
2019-02-12T03:42:22.080Z,0
2019-02-12T03:47:45.549Z,0
2019-02-12T03:56:50.204Z,0
2019-02-12T03:57:47.087Z,0
2019-02-12T04:00:18.472Z,0
2019-02-12T04:01:12.949Z,0
2019-02-12T04:02:12.574Z,0
2019-02-12T04:20:00.021Z,0
2019-02-12T04:20:56.755Z,0
2019-02-12T04:22:09.785Z,0
2019-02-12T04:23:05.546Z,0
2019-02-12T04:24:12.158Z,0
2019-02-12T04:25:07.827Z,0
2019-02-12T04:26:02.543Z,0
2019-02-12T04:27:00.785Z,0
2019-02-12T05:06:54.525Z,0
2019-02-12T05:07:47.135Z,0
2019-02-12T05:08:39.515Z,0
2019-02-12T05:09:32.844Z,0
2019-02-12T05:10:26.333Z,0
2019-02-12T05:11:18.529Z,0
2019-02-12T05:12:11.227Z,0
2019-02-12T05:13:04.491Z,0
2019-02-12T05:13:58.802Z,0
2019-02-12T05:14:51.318Z,0
2019-02-12T05:15:45.628Z,0
2019-02-12T05:16:38.678Z,0
2019-02-12T05:17:43.510Z,0
2019-02-12T05:18:42.683Z,0
2019-02-12T05:19:41.875Z,0
2019-02-12T05:20:42.900Z,0
2019-02-12T05:21:43.677Z,0
2019-02-12T05:22:43.362Z,0
2019-02-12T05:23:39.326Z,0
2019-02-12T05:24:39.690Z,0
2019-02-12T05:25:43.047Z,0
2019-02-12T05:26:42.013Z,0
2019-02-12T05:27:41.955Z,0
2019-02-12T05:28:35.964Z,0
2019-02-12T05:29:31.033Z,0
2019-02-12T05:30:27.194Z,0
2019-02-12T05:31:25.679Z,0
2019-02-12T05:32:20.588Z,0
2019-02-12T05:33:18.360Z,0
2019-02-12T05:34:13.103Z,0
2019-02-12T05:35:08.816Z,0
2019-02-12T05:36:04.678Z,0
2019-02-12T05:36:59.988Z,0
2019-02-12T05:37:55.797Z,0
2019-02-12T05:38:54.068Z,0
2019-02-12T05:39:48.813Z,0
2019-02-12T05:40:45.958Z,0
2019-02-12T05:41:39.878Z,0
2019-02-12T05:52:54.146Z,0
2019-02-12T05:53:54.110Z,0
2019-02-12T05:55:11.547Z,0
2019-02-12T06:07:03.828Z,0
2019-02-12T06:13:03.330Z,0
2019-02-12T06:14:01.894Z,0
2019-02-12T06:15:14.961Z,0
2019-02-12T06:16:20.618Z,0
2019-02-12T06:17:18.241Z,0
2019-02-12T06:27:54.023Z,4
2019-02-12T06:28:48.906Z,4
2019-02-12T06:29:44.436Z,0
2019-02-12T06:30:39.995Z,4
2019-02-12T06:33:26.190Z,4
2019-02-12T06:34:22.818Z,4
2019-02-12T06:35:31.696Z,8
2019-02-12T06:51:55.920Z,48
2019-02-12T06:52:50.794Z,52
2019-02-12T06:53:45.858Z,60
2019-02-12T06:56:21.382Z,72
2019-02-12T06:57:24.669Z,76
2019-02-12T07:00:16.483Z,92
2019-02-12T07:01:10.684Z,104
2019-02-12T07:02:02.901Z,112
2019-02-12T07:02:57.932Z,120
2019-02-12T07:03:53.214Z,136
2019-02-12T07:04:50.894Z,148
2019-02-12T07:07:02.259Z,172
2019-02-12T07:07:58.749Z,184
2019-02-12T07:09:01.155Z,192
2019-02-12T07:11:43.613Z,220
2019-02-12T07:13:52.418Z,244
2019-02-12T07:14:33.994Z,252
2019-02-12T07:15:14.840Z,264
2019-02-12T07:15:55.242Z,272
2019-02-12T07:16:35.670Z,280
2019-02-12T07:17:16.008Z,284
2019-02-12T07:17:56.548Z,296
2019-02-12T07:18:40.927Z,304
2019-02-12T07:19:21.411Z,320
2019-02-12T07:20:02.101Z,332
2019-02-12T07:20:44.351Z,344
2019-02-12T07:21:24.841Z,364
2019-02-12T07:22:05.418Z,388
2019-02-12T07:22:45.923Z,424
2019-02-12T07:23:29.032Z,468
2019-02-12T07:24:11.696Z,512
2019-02-12T07:24:51.289Z,544
2019-02-12T07:25:31.778Z,572
2019-02-12T07:26:12.399Z,596
2019-02-12T07:26:54.834Z,624
2019-02-12T07:27:35.443Z,648
2019-02-12T07:28:16.222Z,664
2019-02-12T07:28:57.517Z,668
2019-02-12T07:29:40.191Z,652
2019-02-12T07:30:23.981Z,644
2019-02-12T07:31:06.332Z,648
2019-02-12T07:36:57.057Z,880
2019-02-12T07:56:51.170Z,952
2019-02-12T07:57:51.478Z,944
2019-02-12T07:58:47.127Z,952
2019-02-12T07:59:45.330Z,960
2019-02-12T08:06:33.329Z,1108
2019-02-12T08:07:29.063Z,1092
2019-02-12T08:17:07.263Z,828
2019-02-12T08:31:13.765Z,748
2019-02-12T08:41:30.189Z,880
2019-02-12T08:42:29.368Z,836
2019-02-12T08:49:40.397Z,1124
2019-02-12T08:50:22.623Z,1160
2019-02-12T08:51:03.155Z,1168
2019-02-12T08:51:45.673Z,1132
2019-02-12T08:52:26.515Z,976
2019-02-12T08:53:07.663Z,1076
2019-02-12T08:53:50.802Z,1108
2019-02-12T08:58:32.493Z,1208
2019-02-12T09:18:13.750Z,1356
2019-02-12T09:18:56.264Z,1300
2019-02-12T09:19:46.642Z,1248
2019-02-12T10:03:34.403Z,940
2019-02-12T10:04:28.978Z,940
2019-02-12T10:05:10.582Z,952
2019-02-12T10:05:54.430Z,980
2019-02-12T10:07:09.179Z,1044
2019-02-12T10:08:00.797Z,1076
2019-02-12T10:08:43.435Z,1108
2019-02-12T11:22:40.990Z,1212
2019-02-12T11:23:31.899Z,1216
2019-02-12T11:24:17.292Z,1212
2019-02-12T11:25:02.579Z,1212
2019-02-12T11:25:50.064Z,1216
2019-02-12T11:26:32.028Z,1224
2019-02-12T11:27:19.077Z,1232
2019-02-12T11:28:08.201Z,1244
2019-02-12T11:29:10.779Z,1248
2019-02-12T11:37:03.408Z,1220
2019-02-12T11:37:49.824Z,1224
2019-02-12T11:38:52.262Z,1220
2019-02-12T11:39:34.473Z,1216
2019-02-12T11:40:15.743Z,1212
2019-02-12T11:41:00.117Z,1212
2019-02-12T11:41:44.555Z,1204
2019-02-12T11:42:27.253Z,1192
2019-02-12T11:43:16.004Z,1180
2019-02-12T11:44:03.806Z,1164
2019-02-12T11:44:45.149Z,1148
2019-02-12T11:45:28.376Z,1136
2019-02-12T11:46:13.533Z,1124
2019-02-12T11:46:55.925Z,1112
2019-02-12T11:47:45.107Z,1104
2019-02-12T11:48:27.335Z,1092
2019-02-12T11:49:11.715Z,1088
2019-02-12T11:49:54.535Z,1084
2019-02-12T11:50:35.019Z,1076
2019-02-12T11:51:19.217Z,1076
2019-02-12T11:52:02.831Z,1080
2019-02-12T11:52:49.279Z,1080
2019-02-12T11:53:31.305Z,1084
2019-02-12T11:54:16.507Z,1100
2019-02-12T11:55:01.739Z,1112
2019-02-12T11:57:57.603Z,1156
2019-02-12T11:58:59.052Z,1176
2019-02-12T12:04:12.716Z,1228
2019-02-12T12:05:29.491Z,1240
2019-02-12T12:06:26.061Z,1244
2019-02-12T12:07:19.685Z,1248
2019-02-12T12:08:12.784Z,1252
2019-02-12T12:09:07.177Z,1256
2019-02-12T12:10:13.323Z,1268
2019-02-12T12:11:07.180Z,1276
2019-02-12T12:11:59.493Z,1284
2019-02-12T12:12:57.925Z,1284
2019-02-12T12:13:52.618Z,1284
2019-02-12T12:14:47.500Z,1284
2019-02-12T12:15:41.088Z,1288
2019-02-12T12:16:36.788Z,1280
2019-02-12T12:17:30.073Z,1276
2019-02-12T12:18:25.626Z,1288
2019-02-12T12:19:08.276Z,1296
2019-02-12T12:19:58.331Z,1300
2019-02-12T12:20:40.696Z,1300
2019-02-12T12:21:42.162Z,1300
2019-02-12T12:22:23.621Z,1304
2019-02-12T12:23:07.090Z,1304
2019-02-12T12:32:04.963Z,1272
2019-02-12T12:33:07.658Z,1272
2019-02-12T12:35:52.129Z,1232
2019-02-12T12:36:46.330Z,1208
2019-02-12T12:37:41.333Z,1188
2019-02-12T12:38:36.006Z,1168
2019-02-12T12:39:30.697Z,1156
2019-02-12T12:40:25.481Z,1152
2019-02-12T12:41:26.528Z,1156
2019-02-12T12:42:19.858Z,1164
2019-02-12T12:43:13.495Z,1172
2019-02-12T12:44:08.286Z,1184
2019-02-12T12:45:03.123Z,1196
2019-02-12T12:46:00.269Z,1208
2019-02-12T12:46:56.691Z,1212
2019-02-12T12:47:49.577Z,1216
2019-02-12T12:48:50.493Z,1220
2019-02-12T12:49:51.636Z,1232
2019-02-12T12:50:58.110Z,1252
2019-02-12T12:51:54.713Z,1260
2019-02-12T12:52:48.683Z,1256
2019-02-12T12:53:42.034Z,1244
2019-02-12T12:54:38.538Z,1248
2019-02-12T12:55:37.515Z,1244
2019-02-12T12:56:32.281Z,1228
2019-02-12T12:59:10.149Z,1164
2019-02-12T13:00:16.252Z,1144
2019-02-12T13:02:06.985Z,1200
2019-02-12T13:03:09.208Z,1296
2019-02-12T13:04:35.809Z,1364
2019-02-12T13:13:53.577Z,1416
2019-02-12T13:14:48.822Z,1416
2019-02-12T13:15:56.891Z,1412
2019-02-12T13:16:54.289Z,1376
2019-02-12T13:17:48.005Z,1320
2019-02-12T13:22:53.816Z,1140
2019-02-12T13:23:53.558Z,1124
2019-02-12T13:24:55.463Z,1088
2019-02-12T13:27:54.623Z,1024
2019-02-12T13:28:53.223Z,1028
2019-02-12T13:30:00.241Z,948
2019-02-12T13:31:07.915Z,912
2019-02-12T13:32:04.658Z,896
2019-02-12T13:33:01.512Z,912
2019-02-12T13:33:55.011Z,936
2019-02-12T13:34:48.894Z,964
2019-02-12T13:35:43.794Z,912
2019-02-12T13:36:39.189Z,904
2019-02-12T13:37:33.790Z,884
2019-02-12T13:38:31.482Z,932
2019-02-12T13:39:26.213Z,904
2019-02-12T13:40:23.712Z,900
2019-02-12T13:41:22.095Z,872
2019-02-12T13:44:05.756Z,940
2019-02-12T13:45:05.695Z,976
2019-02-12T13:46:05.362Z,1040
2019-02-12T13:47:02.315Z,1000
2019-02-12T13:47:54.947Z,1012
2019-02-12T13:48:48.529Z,968
2019-02-12T13:49:44.429Z,996
2019-02-12T13:50:51.103Z,1012
2019-02-12T13:51:53.498Z,976
2019-02-12T13:52:50.821Z,1028
2019-02-12T13:53:47.123Z,996
2019-02-12T13:54:45.370Z,992
2019-02-12T13:55:45.806Z,1012
2019-02-12T13:56:41.042Z,1004
2019-02-12T13:57:41.993Z,1020
2019-02-12T13:58:39.025Z,1016
2019-02-12T13:59:37.798Z,1032
2019-02-12T14:02:32.814Z,1016
2019-02-12T14:03:33.021Z,1020
2019-02-12T14:04:35.760Z,1012
2019-02-12T14:07:41.368Z,960
2019-02-12T14:09:54.907Z,920
2019-02-12T14:12:04.075Z,936
2019-02-12T14:13:43.899Z,952
2019-02-12T14:14:39.840Z,976
2019-02-12T14:15:33.635Z,992
2019-02-12T14:16:33.514Z,968
2019-02-12T14:17:28.063Z,932
2019-02-12T14:18:21.892Z,904
2019-02-12T14:21:22.185Z,824
2019-02-12T14:22:27.053Z,812
2019-02-12T14:23:07.298Z,812
2019-02-12T14:23:50.473Z,812
2019-02-12T14:24:37.174Z,820
2019-02-12T14:25:42.532Z,824
2019-02-12T14:26:25.930Z,832
2019-02-12T14:27:07.919Z,840
2019-02-12T14:27:52.731Z,844
2019-02-12T14:28:39.009Z,848
2019-02-12T14:29:34.781Z,852
2019-02-12T14:30:18.042Z,860
2019-02-12T14:30:59.133Z,864
2019-02-12T14:31:42.835Z,856
2019-02-12T14:32:25.689Z,860
2019-02-12T14:33:11.618Z,888
2019-02-12T14:33:53.935Z,892
2019-02-12T14:34:36.185Z,916
2019-02-12T14:35:16.998Z,952
2019-02-12T14:35:57.876Z,972
2019-02-12T14:36:40.646Z,1020
2019-02-12T14:37:25.286Z,1028
2019-02-12T14:38:05.694Z,1020
2019-02-12T14:38:53.389Z,988
2019-02-12T14:39:38.978Z,976
2019-02-12T14:42:21.303Z,920
2019-02-12T14:43:14.862Z,912
2019-02-12T14:44:11.413Z,908
2019-02-12T14:45:05.396Z,892
2019-02-12T14:46:00.514Z,872
2019-02-12T14:46:56.829Z,844
2019-02-12T14:47:52.747Z,812
2019-02-12T14:48:53.266Z,776
2019-02-12T14:49:51.777Z,752
2019-02-12T14:50:56.851Z,716
2019-02-12T14:51:58.299Z,680
2019-02-12T14:53:00.266Z,656
2019-02-12T14:53:56.618Z,632
2019-02-12T14:54:52.551Z,612
2019-02-12T14:56:01.905Z,600
2019-02-12T14:57:00.259Z,596
2019-02-12T14:58:11.770Z,556
2019-02-12T14:59:11.414Z,532
2019-02-12T15:00:27.629Z,476
2019-02-12T15:01:28.787Z,452
2019-02-12T15:02:29.013Z,452
2019-02-12T15:03:29.248Z,452
2019-02-12T15:06:34.098Z,432
2019-02-12T15:07:14.457Z,440
2019-02-12T15:07:55.578Z,452
2019-02-12T15:08:35.545Z,444
2019-02-12T15:09:18.524Z,432
2019-02-12T15:09:59.290Z,428
2019-02-12T15:10:41.472Z,420
2019-02-12T15:11:23.839Z,416
2019-02-12T15:12:05.728Z,416
2019-02-12T15:14:33.093Z,464
2019-02-12T15:15:27.807Z,508
2019-02-12T15:16:27.891Z,472
2019-02-12T15:17:26.258Z,480
2019-02-12T15:18:23.814Z,504
2019-02-12T15:19:27.217Z,528
2019-02-12T15:20:38.485Z,544
2019-02-12T15:21:31.270Z,540
2019-02-12T15:22:27.200Z,540
2019-02-12T15:23:28.354Z,544
2019-02-12T15:24:30.997Z,544
2019-02-12T15:27:50.548Z,604
2019-02-12T15:28:38.638Z,668
2019-02-12T15:29:24.031Z,592
2019-02-12T15:30:09.159Z,536
2019-02-12T15:50:42.422Z,412
2019-02-12T15:51:42.585Z,388
2019-02-12T15:52:43.237Z,376
2019-02-12T15:53:40.927Z,368
2019-02-12T15:54:40.739Z,348
2019-02-12T15:55:51.093Z,332
2019-02-12T15:56:46.765Z,324
2019-02-12T15:57:45.877Z,324
2019-02-12T15:58:46.226Z,352
2019-02-12T15:59:45.960Z,364
2019-02-12T16:00:43.433Z,360
2019-02-12T16:01:43.943Z,332
2019-02-12T16:02:50.725Z,296
2019-02-12T16:03:51.442Z,284
2019-02-12T16:04:50.163Z,288
2019-02-12T16:12:03.966Z,228
2019-02-12T16:13:00.141Z,216
2019-02-12T16:13:59.075Z,208
2019-02-12T16:15:01.412Z,200
2019-02-12T16:15:59.665Z,188
2019-02-12T16:16:54.154Z,180
2019-02-12T16:17:48.886Z,172
2019-02-12T16:18:47.493Z,164
2019-02-12T16:19:41.643Z,156
2019-02-12T16:20:37.661Z,148
2019-02-12T16:21:59.332Z,140
2019-02-12T16:23:11.720Z,128
2019-02-12T16:24:08.082Z,124
2019-02-12T16:25:02.222Z,116
2019-02-12T16:25:59.429Z,112
2019-02-12T16:27:08.714Z,104
2019-02-12T16:30:12.842Z,80
2019-02-12T16:31:13.239Z,72
2019-02-12T16:32:06.616Z,68
2019-02-12T17:08:32.260Z,0
2019-02-12T17:09:29.117Z,0
2019-02-12T17:10:28.695Z,0
2019-02-12T17:11:25.885Z,0
2019-02-12T17:12:27.733Z,0
2019-02-12T17:13:23.602Z,0
2019-02-12T17:14:22.505Z,0
2019-02-12T17:15:23.448Z,0
2019-02-12T17:16:30.804Z,0
2019-02-12T17:19:30.263Z,0
2019-02-12T17:20:33.066Z,0
2019-02-12T17:26:15.081Z,0
2019-02-12T17:27:08.297Z,0
2019-02-12T17:28:12.413Z,0
2019-02-12T17:29:13.250Z,0
2019-02-12T17:30:11.558Z,0
2019-02-12T17:31:13.785Z,0
2019-02-12T17:32:16.174Z,0
2019-02-12T17:33:08.530Z,0
2019-02-12T17:34:03.384Z,0
2019-02-12T17:35:08.978Z,0
2019-02-12T17:37:42.926Z,0
2019-02-12T17:38:44.681Z,0
2019-02-12T17:39:41.142Z,0
2019-02-12T17:40:38.185Z,0
2019-02-12T17:42:55.838Z,0
2019-02-12T17:43:50.136Z,0
2019-02-12T17:44:42.478Z,0
2019-02-12T17:45:44.651Z,0
2019-02-12T17:46:38.059Z,0
2019-02-12T17:47:33.788Z,0
2019-02-12T17:48:30.054Z,0
2019-02-12T17:49:25.915Z,0
2019-02-12T17:50:20.672Z,0
2019-02-12T17:51:14.818Z,0
2019-02-12T17:52:08.690Z,0
2019-02-12T17:53:02.003Z,0
2019-02-12T17:53:59.026Z,0
2019-02-12T17:54:53.769Z,0
2019-02-12T17:55:51.461Z,0
2019-02-12T17:56:47.567Z,0
2019-02-12T17:57:41.039Z,0
2019-02-12T17:58:34.791Z,0
2019-02-12T17:59:30.149Z,0
2019-02-12T18:00:29.154Z,0
2019-02-12T18:01:24.738Z,0
2019-02-12T18:02:19.286Z,0
2019-02-12T18:03:13.123Z,0
2019-02-12T18:04:06.610Z,0
2019-02-12T18:04:59.589Z,0
2019-02-12T18:05:52.590Z,0
2019-02-12T18:06:44.587Z,0
2019-02-12T18:07:37.057Z,0
2019-02-12T18:08:30.604Z,0
2019-02-12T18:09:23.038Z,0
2019-02-12T18:10:16.558Z,0
2019-02-12T18:11:12.915Z,0
2019-02-12T18:12:05.041Z,0
2019-02-12T18:12:57.444Z,0
2019-02-12T18:13:49.477Z,0
2019-02-12T18:14:41.586Z,0
2019-02-12T18:15:34.380Z,0
2019-02-12T18:16:27.619Z,0
2019-02-12T18:17:19.581Z,0
2019-02-12T18:18:12.256Z,0
2019-02-12T18:19:04.483Z,0
2019-02-12T18:19:56.925Z,0
2019-02-12T18:20:50.052Z,0
2019-02-12T18:21:43.070Z,0
2019-02-12T18:22:37.024Z,0
2019-02-12T18:23:29.041Z,0
2019-02-12T18:24:21.458Z,0
2019-02-12T18:25:13.443Z,0
2019-02-12T18:26:06.942Z,0
2019-02-12T18:26:59.038Z,0
2019-02-12T18:27:53.142Z,0
2019-02-12T18:28:45.625Z,0
2019-02-12T18:29:38.059Z,0
2019-02-12T18:30:30.246Z,0
2019-02-12T18:31:23.474Z,0
2019-02-12T18:32:15.700Z,0
2019-02-12T18:33:08.560Z,0
2019-02-12T18:34:00.718Z,0
2019-02-12T18:34:54.065Z,0
2019-02-12T18:35:46.169Z,0
2019-02-12T18:36:38.579Z,0
2019-02-12T18:37:30.788Z,0
2019-02-12T18:38:23.311Z,0
2019-02-12T18:39:15.587Z,0
2019-02-12T18:40:08.795Z,0
2019-02-12T18:41:00.735Z,0
2019-02-12T18:41:52.685Z,0
2019-02-12T18:42:47.234Z,0
2019-02-12T18:43:41.040Z,0
2019-02-12T18:44:33.495Z,0
2019-02-12T18:45:25.574Z,0
2019-02-12T18:46:17.212Z,0
2019-02-12T18:48:27.160Z,0
2019-02-12T18:49:19.315Z,0
2019-02-12T18:50:12.862Z,0
2019-02-12T18:51:05.286Z,0
2019-02-12T18:51:57.776Z,0
2019-02-12T18:52:50.250Z,0
2019-02-12T18:53:42.928Z,0
2019-02-12T18:54:35.475Z,0
2019-02-12T18:55:27.905Z,0
2019-02-12T18:56:22.375Z,0
2019-02-12T18:57:14.760Z,0
2019-02-12T18:58:06.852Z,0
2019-02-12T18:58:59.286Z,0
2019-02-12T18:59:52.509Z,0
2019-02-12T19:00:45.235Z,0
2019-02-12T19:01:37.964Z,0
2019-02-12T19:02:30.313Z,0
2019-02-12T19:03:22.363Z,0
2019-02-12T19:04:15.270Z,0
2019-02-12T19:05:08.151Z,0
2019-02-12T19:06:00.508Z,0
2019-02-12T19:06:52.773Z,0
2019-02-12T19:07:45.010Z,0
2019-02-12T19:08:37.798Z,0
2019-02-12T19:09:30.328Z,0
2019-02-12T19:10:23.898Z,0
2019-02-12T19:11:16.524Z,0
2019-02-12T19:12:10.105Z,0
2019-02-12T19:13:02.278Z,0
2019-02-12T19:13:55.468Z,0
2019-02-12T19:14:50.154Z,0
2019-02-12T19:15:42.454Z,0
2019-02-12T19:16:36.236Z,0
2019-02-12T19:17:28.996Z,0
2019-02-12T19:18:21.674Z,0
2019-02-12T19:19:16.167Z,0
2019-02-12T19:20:07.853Z,0
2019-02-12T19:21:01.023Z,0
2019-02-12T19:21:54.286Z,0
2019-02-12T19:22:47.637Z,0
2019-02-12T19:23:39.419Z,0
2019-02-12T19:24:31.540Z,0
2019-02-12T19:25:25.383Z,0
2019-02-12T19:26:19.272Z,0
2019-02-12T19:27:13.377Z,0
2019-02-12T19:28:06.075Z,0
2019-02-12T19:28:58.231Z,0
2019-02-12T19:29:50.184Z,0
2019-02-12T19:30:42.224Z,0
2019-02-12T19:31:35.169Z,0
2019-02-12T19:32:29.415Z,0
2019-02-12T19:33:21.643Z,0
2019-02-12T19:34:13.711Z,0
2019-02-12T19:35:07.267Z,0
2019-02-12T19:36:00.848Z,0
2019-02-12T19:36:54.788Z,0
2019-02-12T19:37:49.426Z,0
2019-02-12T19:38:41.706Z,0
2019-02-12T19:39:33.653Z,0
2019-02-12T19:40:26.892Z,0
2019-02-12T19:41:20.569Z,0
2019-02-12T19:42:13.156Z,0
2019-02-12T19:43:06.270Z,0
2019-02-12T19:43:58.909Z,0
2019-02-12T19:44:51.270Z,0
2019-02-12T19:45:44.284Z,0
2019-02-12T19:46:38.023Z,0
2019-02-12T19:47:31.184Z,0
2019-02-12T19:48:24.117Z,0
2019-02-12T19:49:17.541Z,0
2019-02-12T19:50:11.819Z,0
2019-02-12T19:51:04.392Z,0
2019-02-12T19:51:56.612Z,0
2019-02-12T19:52:48.644Z,0
2019-02-12T19:53:42.555Z,0
2019-02-12T19:54:35.198Z,0
2019-02-12T19:55:28.405Z,0
2019-02-12T19:56:20.852Z,0
2019-02-12T19:57:15.071Z,0
2019-02-12T19:58:08.685Z,0
2019-02-12T19:59:00.879Z,0
2019-02-12T19:59:53.493Z,0
2019-02-12T20:00:45.776Z,0
2019-02-12T20:01:38.082Z,0
2019-02-12T20:02:30.278Z,0
2019-02-12T20:03:24.040Z,0
2019-02-12T20:04:16.371Z,0
2019-02-12T20:05:09.373Z,0
2019-02-12T20:06:02.557Z,0
2019-02-12T20:06:54.892Z,0
2019-02-12T20:07:47.507Z,0
2019-02-12T20:08:40.089Z,0
2019-02-12T20:09:32.734Z,0
2019-02-12T20:10:24.823Z,0
2019-02-12T20:11:17.225Z,0
2019-02-12T20:12:09.989Z,0
2019-02-12T20:13:02.174Z,0
2019-02-12T20:13:55.122Z,0
2019-02-12T20:14:47.457Z,0
2019-02-12T20:15:40.026Z,0
2019-02-12T20:16:33.067Z,0
2019-02-12T20:17:25.227Z,0
2019-02-12T20:18:17.896Z,0
2019-02-12T20:19:10.292Z,0
2019-02-12T20:20:03.012Z,0
2019-02-12T20:20:55.151Z,0
2019-02-12T20:21:47.279Z,0
2019-02-12T20:22:39.763Z,0
2019-02-12T20:23:33.497Z,0
2019-02-12T20:24:25.857Z,0
2019-02-12T20:25:18.240Z,0
2019-02-12T20:26:10.499Z,0
2019-02-12T20:27:06.546Z,0
2019-02-12T20:27:55.569Z,0
2019-02-12T20:28:47.810Z,0
2019-02-12T20:29:39.857Z,0
2019-02-12T20:30:32.265Z,0
2019-02-12T20:31:24.342Z,0
2019-02-12T20:32:17.512Z,0
2019-02-12T20:33:09.269Z,0
2019-02-12T20:34:01.229Z,0
2019-02-12T20:34:53.143Z,0
2019-02-12T20:35:45.469Z,0
2019-02-12T20:36:37.564Z,0
2019-02-12T20:37:29.282Z,0
2019-02-12T20:38:21.850Z,0
2019-02-12T20:39:14.782Z,0
2019-02-12T20:40:06.976Z,0
2019-02-12T20:41:00.321Z,0
2019-02-12T20:41:54.283Z,0
2019-02-12T20:42:46.437Z,0
2019-02-12T20:43:38.815Z,0
2019-02-12T20:44:30.736Z,0
2019-02-12T20:45:22.922Z,0
2019-02-12T20:46:15.237Z,0
2019-02-12T20:47:08.254Z,0
2019-02-12T20:48:00.485Z,0
2019-02-12T20:48:52.388Z,0
2019-02-12T20:49:44.907Z,0
2019-02-12T20:50:37.828Z,0
2019-02-12T20:51:30.277Z,0
2019-02-12T20:52:22.332Z,0
2019-02-12T20:53:14.823Z,0
2019-02-12T20:54:07.075Z,0
2019-02-12T20:54:53.858Z,0
2019-02-12T20:55:34.227Z,0
2019-02-12T20:56:14.740Z,0
2019-02-12T20:56:55.149Z,0
2019-02-12T20:57:35.528Z,0
2019-02-12T20:58:15.895Z,0
2019-02-12T20:58:56.300Z,0
2019-02-12T20:59:36.742Z,0
2019-02-12T21:00:17.079Z,0
2019-02-12T21:00:57.626Z,0
2019-02-12T21:01:37.904Z,0
2019-02-12T21:02:18.283Z,0
2019-02-12T21:02:58.848Z,0
2019-02-12T21:03:39.205Z,0
2019-02-12T21:04:19.597Z,0
2019-02-12T21:04:59.961Z,0
2019-02-12T21:05:40.378Z,0
2019-02-12T21:06:20.657Z,0
2019-02-12T21:07:01.176Z,0
2019-02-12T21:07:41.661Z,0
2019-02-12T21:08:22.001Z,0
2019-02-12T21:09:02.362Z,0
2019-02-12T21:09:42.717Z,0
2019-02-12T21:10:23.262Z,0
2019-02-12T21:11:03.642Z,0
2019-02-12T21:11:44.042Z,0
2019-02-12T21:12:24.434Z,0
2019-02-12T21:13:04.785Z,0
2019-02-12T21:13:45.265Z,0
2019-02-12T21:14:25.716Z,0
2019-02-12T21:15:06.060Z,0
2019-02-12T21:15:46.443Z,0
2019-02-12T21:16:26.857Z,0
2019-02-12T21:17:07.303Z,0
2019-02-12T21:17:47.748Z,0
2019-02-12T21:18:28.152Z,0
2019-02-12T21:19:08.607Z,0
2019-02-12T21:19:49.018Z,0
2019-02-12T21:20:29.639Z,0
2019-02-12T21:21:09.865Z,0
2019-02-12T21:21:50.443Z,0
2019-02-12T21:22:30.807Z,0
2019-02-12T21:23:11.487Z,0
2019-02-12T21:23:51.986Z,0
2019-02-12T21:24:32.360Z,0
2019-02-12T21:25:12.847Z,0
2019-02-12T21:25:53.295Z,0
2019-02-12T21:26:33.706Z,0
2019-02-12T21:27:14.037Z,0
2019-02-12T21:27:54.658Z,0
2019-02-12T21:28:35.003Z,0
2019-02-12T21:29:15.415Z,0
2019-02-12T21:29:55.841Z,0
2019-02-12T21:30:36.207Z,0
2019-02-12T21:31:17.542Z,0
2019-02-12T21:31:57.087Z,0
2019-02-12T21:32:37.430Z,0
2019-02-12T21:33:18.686Z,0
2019-02-12T21:33:58.269Z,0
2019-02-12T21:34:38.723Z,0
2019-02-12T21:35:19.076Z,0
2019-02-12T21:35:59.522Z,0
2019-02-12T21:36:39.903Z,0
2019-02-12T21:37:20.325Z,0
2019-02-12T21:38:00.631Z,0
2019-02-12T21:38:41.088Z,0
2019-02-12T21:39:21.531Z,0
2019-02-12T21:40:01.830Z,0
2019-02-12T21:40:42.303Z,0
2019-02-12T21:41:22.672Z,0
2019-02-12T21:42:03.179Z,0
2019-02-12T21:42:43.535Z,0
2019-02-12T21:43:23.958Z,0
2019-02-12T21:44:04.365Z,0
2019-02-12T21:44:44.750Z,0
2019-02-12T21:45:25.071Z,0
2019-02-12T21:46:05.577Z,0
2019-02-12T21:46:45.940Z,0
2019-02-12T21:47:26.303Z,0
2019-02-12T21:48:06.687Z,0
2019-02-12T21:48:47.133Z,0
2019-02-12T21:49:27.482Z,0
2019-02-12T21:50:07.937Z,0
2019-02-12T21:50:48.302Z,0
2019-02-12T21:51:28.704Z,0
2019-02-12T21:52:09.137Z,0
2019-02-12T21:52:49.463Z,0
2019-02-12T21:53:29.797Z,0
2019-02-12T21:54:10.265Z,0
2019-02-12T21:54:50.665Z,0
2019-02-12T21:55:31.031Z,0
2019-02-12T21:56:11.537Z,0
2019-02-12T21:56:51.968Z,0
2019-02-12T21:57:32.336Z,0
2019-02-12T21:58:12.843Z,0
2019-02-12T21:58:53.153Z,0
2019-02-12T21:59:33.550Z,0
2019-02-12T22:00:14.015Z,0
2019-02-12T22:00:54.379Z,0
2019-02-12T22:01:34.752Z,0
2019-02-12T22:02:15.219Z,0
2019-02-12T22:02:55.656Z,0
2019-02-12T22:03:36.125Z,0
2019-02-12T22:04:16.458Z,0
2019-02-12T22:04:56.971Z,0
2019-02-12T22:05:37.304Z,0
2019-02-12T22:06:17.698Z,0
2019-02-12T22:06:58.113Z,0
2019-02-12T22:07:38.476Z,0
2019-02-12T22:08:19.014Z,0
2019-02-12T22:08:59.294Z,0
2019-02-12T22:09:39.784Z,0
2019-02-12T22:10:20.176Z,0
2019-02-12T22:11:00.581Z,0
2019-02-12T22:11:40.996Z,0
2019-02-12T22:12:21.325Z,0
2019-02-12T22:13:01.719Z,0
2019-02-12T22:13:42.144Z,0
2019-02-12T22:14:22.601Z,0
2019-02-12T22:15:02.911Z,0
2019-02-12T22:15:43.285Z,0
2019-02-12T22:16:23.718Z,0
2019-02-12T22:17:05.477Z,0
2019-02-12T22:17:44.481Z,0
2019-02-12T22:18:24.852Z,0
2019-02-12T22:19:05.264Z,0
2019-02-12T22:19:45.643Z,0
2019-02-12T22:20:25.990Z,0
2019-02-12T22:21:06.356Z,0
2019-02-12T22:21:46.825Z,0
2019-02-12T22:22:27.217Z,0
2019-02-12T22:23:07.535Z,0
2019-02-12T22:23:47.993Z,0
2019-02-12T22:24:28.355Z,0
2019-02-12T22:25:08.715Z,0
2019-02-12T22:25:49.114Z,0
2019-02-12T22:26:29.523Z,0
2019-02-12T22:27:09.963Z,0
2019-02-12T22:27:50.386Z,0
2019-02-12T22:28:30.743Z,0
2019-02-12T23:06:18.644Z,0
2019-02-12T23:07:10.908Z,0
2019-02-12T23:08:02.954Z,0
2019-02-12T23:08:55.008Z,0
2019-02-12T23:09:47.897Z,0
2019-02-12T23:10:40.344Z,0
2019-02-12T23:11:33.182Z,0
2019-02-12T23:12:25.334Z,0
2019-02-12T23:13:18.667Z,0
2019-02-12T23:14:10.776Z,0
2019-02-12T23:15:03.615Z,0
2019-02-12T23:15:55.765Z,0
2019-02-12T23:16:48.975Z,0
2019-02-12T23:17:41.339Z,0
2019-02-12T23:18:34.508Z,0